sensor_id;sensor_type;location;lat;lon;timestamp;pressure;altitude;pressure_sealevel;temperature;humidity
73501;BME280;61721;42.206;25.320;2023-12-07T00:01:18;99234.28;;;6.32;85.04
73501;BME280;61721;42.206;25.320;2023-12-07T00:03:45;99232.97;;;6.21;82.77
73501;BME280;61721;42.206;25.320;2023-12-07T00:06:13;99231.88;;;6.09;83.27
73501;BME280;61721;42.206;25.320;2023-12-07T00:08:40;99237.41;;;6.83;81.20
73501;BME280;61721;42.206;25.320;2023-12-07T00:11:15;99246.00;;;6.93;79.96
73501;BME280;61721;42.206;25.320;2023-12-07T00:13:43;99241.22;;;7.02;79.76
73501;BME280;61721;42.206;25.320;2023-12-07T00:16:10;99241.50;;;7.27;78.58
73501;BME280;61721;42.206;25.320;2023-12-07T00:18:38;99236.16;;;6.31;81.05
73501;BME280;61721;42.206;25.320;2023-12-07T00:21:07;99244.13;;;6.94;79.51
73501;BME280;61721;42.206;25.320;2023-12-07T00:23:34;99236.97;;;6.73;80.16
73501;BME280;61721;42.206;25.320;2023-12-07T00:26:03;99247.91;;;7.06;78.66
73501;BME280;61721;42.206;25.320;2023-12-07T00:28:32;99249.81;;;6.58;79.73
73501;BME280;61721;42.206;25.320;2023-12-07T00:30:59;99253.00;;;6.75;80.36
73501;BME280;61721;42.206;25.320;2023-12-07T00:33:27;99251.50;;;6.24;81.08
73501;BME280;61721;42.206;25.320;2023-12-07T00:35:55;99245.16;;;5.83;83.13
73501;BME280;61721;42.206;25.320;2023-12-07T00:38:23;99243.38;;;5.69;83.22
73501;BME280;61721;42.206;25.320;2023-12-07T00:40:50;99230.25;;;6.15;81.93
73501;BME280;61721;42.206;25.320;2023-12-07T00:43:18;99228.44;;;6.63;79.95
73501;BME280;61721;42.206;25.320;2023-12-07T00:45:47;99232.72;;;6.51;80.38
73501;BME280;61721;42.206;25.320;2023-12-07T00:48:14;99230.94;;;6.23;81.18
73501;BME280;61721;42.206;25.320;2023-12-07T00:50:41;99230.97;;;6.37;79.97
73501;BME280;61721;42.206;25.320;2023-12-07T00:53:09;99230.19;;;6.43;79.25
73501;BME280;61721;42.206;25.320;2023-12-07T00:55:38;99237.56;;;6.62;79.13
73501;BME280;61721;42.206;25.320;2023-12-07T00:58:06;99240.44;;;7.01;77.44
73501;BME280;61721;42.206;25.320;2023-12-07T01:00:33;99240.75;;;6.85;77.50
73501;BME280;61721;42.206;25.320;2023-12-07T01:03:02;99234.50;;;6.72;77.52
73501;BME280;61721;42.206;25.320;2023-12-07T01:05:29;99233.59;;;6.64;77.67
73501;BME280;61721;42.206;25.320;2023-12-07T01:07:57;99231.31;;;6.20;78.74
73501;BME280;61721;42.206;25.320;2023-12-07T01:10:24;99228.47;;;6.35;78.40
73501;BME280;61721;42.206;25.320;2023-12-07T01:12:52;99228.53;;;6.42;78.05
73501;BME280;61721;42.206;25.320;2023-12-07T01:15:19;99223.50;;;6.39;77.64
73501;BME280;61721;42.206;25.320;2023-12-07T01:17:48;99234.03;;;6.61;77.50
73501;BME280;61721;42.206;25.320;2023-12-07T01:20:18;99221.47;;;6.41;77.37
73501;BME280;61721;42.206;25.320;2023-12-07T01:22:45;99222.34;;;6.54;77.46
73501;BME280;61721;42.206;25.320;2023-12-07T01:25:13;99226.78;;;6.75;76.71
73501;BME280;61721;42.206;25.320;2023-12-07T01:27:45;99226.16;;;6.73;76.16
73501;BME280;61721;42.206;25.320;2023-12-07T01:30:14;99227.63;;;6.69;76.20
73501;BME280;61721;42.206;25.320;2023-12-07T01:32:42;99216.88;;;6.41;77.33
73501;BME280;61721;42.206;25.320;2023-12-07T01:35:09;99218.56;;;6.42;77.64
73501;BME280;61721;42.206;25.320;2023-12-07T01:37:38;99216.16;;;6.67;76.88
73501;BME280;61721;42.206;25.320;2023-12-07T01:40:07;99223.69;;;6.78;76.64
73501;BME280;61721;42.206;25.320;2023-12-07T01:42:36;99225.88;;;6.55;76.62
73501;BME280;61721;42.206;25.320;2023-12-07T01:45:05;99225.69;;;6.56;77.13
73501;BME280;61721;42.206;25.320;2023-12-07T01:47:33;99218.84;;;6.19;78.21
73501;BME280;61721;42.206;25.320;2023-12-07T01:50:02;99214.75;;;6.30;78.06
73501;BME280;61721;42.206;25.320;2023-12-07T01:52:32;99225.09;;;6.26;78.05
73501;BME280;61721;42.206;25.320;2023-12-07T01:55:03;99221.97;;;6.64;76.99
73501;BME280;61721;42.206;25.320;2023-12-07T01:57:31;99218.56;;;6.42;77.17
73501;BME280;61721;42.206;25.320;2023-12-07T01:59:58;99215.97;;;6.27;78.09
73501;BME280;61721;42.206;25.320;2023-12-07T02:02:26;99215.00;;;6.07;78.90
73501;BME280;61721;42.206;25.320;2023-12-07T02:04:54;99218.41;;;6.57;77.48
73501;BME280;61721;42.206;25.320;2023-12-07T02:07:22;99221.47;;;6.47;76.72
73501;BME280;61721;42.206;25.320;2023-12-07T02:09:50;99226.00;;;6.33;76.49
73501;BME280;61721;42.206;25.320;2023-12-07T02:12:19;99231.91;;;6.57;76.24
73501;BME280;61721;42.206;25.320;2023-12-07T02:14:47;99230.97;;;6.37;76.70
73501;BME280;61721;42.206;25.320;2023-12-07T02:17:16;99233.97;;;6.55;76.01
73501;BME280;61721;42.206;25.320;2023-12-07T02:19:51;99229.84;;;6.59;76.01
73501;BME280;61721;42.206;25.320;2023-12-07T02:22:25;99225.19;;;6.40;76.27
73501;BME280;61721;42.206;25.320;2023-12-07T02:25:07;99229.38;;;6.42;77.14
73501;BME280;61721;42.206;25.320;2023-12-07T02:27:38;99238.16;;;6.57;75.86
73501;BME280;61721;42.206;25.320;2023-12-07T02:30:07;99226.50;;;6.57;75.77
73501;BME280;61721;42.206;25.320;2023-12-07T02:32:35;99218.31;;;6.03;77.78
73501;BME280;61721;42.206;25.320;2023-12-07T02:35:03;99217.25;;;6.31;77.32
73501;BME280;61721;42.206;25.320;2023-12-07T02:37:35;99213.53;;;6.32;76.67
73501;BME280;61721;42.206;25.320;2023-12-07T02:40:06;99217.56;;;6.15;77.49
73501;BME280;61721;42.206;25.320;2023-12-07T02:42:37;99213.75;;;6.03;78.40
73501;BME280;61721;42.206;25.320;2023-12-07T02:45:07;99215.94;;;6.21;77.49
73501;BME280;61721;42.206;25.320;2023-12-07T02:47:35;99215.00;;;6.07;77.54
73501;BME280;61721;42.206;25.320;2023-12-07T02:50:04;99228.06;;;6.31;77.30
73501;BME280;61721;42.206;25.320;2023-12-07T02:52:31;99223.97;;;6.49;76.05
73501;BME280;61721;42.206;25.320;2023-12-07T02:54:59;99220.81;;;6.39;76.25
73501;BME280;61721;42.206;25.320;2023-12-07T02:57:34;99221.84;;;6.38;76.29
73501;BME280;61721;42.206;25.320;2023-12-07T03:00:03;99215.22;;;6.40;76.14
73501;BME280;61721;42.206;25.320;2023-12-07T03:02:33;99215.00;;;6.07;77.38
73501;BME280;61721;42.206;25.320;2023-12-07T03:05:01;99214.13;;;6.34;76.31
73501;BME280;61721;42.206;25.320;2023-12-07T03:07:29;99214.38;;;6.40;76.45
73501;BME280;61721;42.206;25.320;2023-12-07T03:09:56;99209.44;;;6.15;77.24
73501;BME280;61721;42.206;25.320;2023-12-07T03:12:24;99219.94;;;6.31;76.59
73501;BME280;61721;42.206;25.320;2023-12-07T03:14:51;99215.25;;;6.47;75.61
73501;BME280;61721;42.206;25.320;2023-12-07T03:17:20;99220.09;;;5.68;78.31
73501;BME280;61721;42.206;25.320;2023-12-07T03:19:48;99216.16;;;5.42;79.30
73501;BME280;61721;42.206;25.320;2023-12-07T03:22:15;99216.88;;;5.30;80.48
73501;BME280;61721;42.206;25.320;2023-12-07T03:24:46;99219.78;;;5.28;80.34
73501;BME280;61721;42.206;25.320;2023-12-07T03:27:13;99216.94;;;5.36;80.13
73501;BME280;61721;42.206;25.320;2023-12-07T03:29:41;99215.00;;;5.30;80.65
73501;BME280;61721;42.206;25.320;2023-12-07T03:32:09;99208.91;;;6.26;77.93
73501;BME280;61721;42.206;25.320;2023-12-07T03:34:37;99205.16;;;6.27;76.62
73501;BME280;61721;42.206;25.320;2023-12-07T03:37:05;99205.63;;;6.38;76.12
73501;BME280;61721;42.206;25.320;2023-12-07T03:39:32;99207.66;;;6.22;75.82
73501;BME280;61721;42.206;25.320;2023-12-07T03:42:00;99211.47;;;5.79;77.06
73501;BME280;61721;42.206;25.320;2023-12-07T03:44:27;99211.41;;;5.23;78.93
73501;BME280;61721;42.206;25.320;2023-12-07T03:46:55;99212.47;;;5.50;78.35
73501;BME280;61721;42.206;25.320;2023-12-07T03:49:22;99215.28;;;5.35;78.26
73501;BME280;61721;42.206;25.320;2023-12-07T03:51:51;99217.22;;;4.99;79.74
73501;BME280;61721;42.206;25.320;2023-12-07T03:54:18;99216.06;;;5.08;80.02
73501;BME280;61721;42.206;25.320;2023-12-07T03:56:46;99211.56;;;5.36;79.00
73501;BME280;61721;42.206;25.320;2023-12-07T03:59:13;99213.47;;;5.42;79.11
73501;BME280;61721;42.206;25.320;2023-12-07T04:01:41;99213.53;;;5.77;77.74
73501;BME280;61721;42.206;25.320;2023-12-07T04:04:08;99212.41;;;5.37;78.33
73501;BME280;61721;42.206;25.320;2023-12-07T04:06:35;99209.44;;;5.32;78.75
73501;BME280;61721;42.206;25.320;2023-12-07T04:09:07;99211.16;;;5.39;78.40
73501;BME280;61721;42.206;25.320;2023-12-07T04:11:34;99221.56;;;5.42;78.51
73501;BME280;61721;42.206;25.320;2023-12-07T04:14:02;99227.75;;;5.36;78.53
73501;BME280;61721;42.206;25.320;2023-12-07T04:16:29;99218.63;;;5.16;78.63
73501;BME280;61721;42.206;25.320;2023-12-07T04:18:57;99213.88;;;5.18;78.46
73501;BME280;61721;42.206;25.320;2023-12-07T04:21:24;99210.63;;;5.29;78.34
73501;BME280;61721;42.206;25.320;2023-12-07T04:23:52;99217.69;;;5.30;77.83
73501;BME280;61721;42.206;25.320;2023-12-07T04:26:21;99219.31;;;5.25;78.13
73501;BME280;61721;42.206;25.320;2023-12-07T04:28:48;99219.91;;;4.99;78.43
73501;BME280;61721;42.206;25.320;2023-12-07T04:31:15;99224.25;;;5.21;78.47
73501;BME280;61721;42.206;25.320;2023-12-07T04:33:43;99220.03;;;5.33;77.82
73501;BME280;61721;42.206;25.320;2023-12-07T04:36:10;99212.59;;;5.35;77.82
73501;BME280;61721;42.206;25.320;2023-12-07T04:38:38;99219.00;;;5.83;76.23
73501;BME280;61721;42.206;25.320;2023-12-07T04:41:05;99222.00;;;5.46;76.63
73501;BME280;61721;42.206;25.320;2023-12-07T04:43:34;99227.03;;;5.28;77.78
73501;BME280;61721;42.206;25.320;2023-12-07T04:46:02;99229.13;;;5.11;78.15
73501;BME280;61721;42.206;25.320;2023-12-07T04:48:29;99228.28;;;5.10;78.08
73501;BME280;61721;42.206;25.320;2023-12-07T04:50:57;99229.56;;;4.57;79.70
73501;BME280;61721;42.206;25.320;2023-12-07T04:53:24;99233.81;;;5.02;78.79
73501;BME280;61721;42.206;25.320;2023-12-07T04:55:52;99224.41;;;5.34;77.69
73501;BME280;61721;42.206;25.320;2023-12-07T04:58:19;99235.81;;;5.15;77.84
73501;BME280;61721;42.206;25.320;2023-12-07T05:00:48;99235.81;;;5.15;78.24
73501;BME280;61721;42.206;25.320;2023-12-07T05:03:16;99231.97;;;5.24;78.24
73501;BME280;61721;42.206;25.320;2023-12-07T05:05:43;99232.22;;;5.29;77.35
73501;BME280;61721;42.206;25.320;2023-12-07T05:08:11;99230.56;;;5.28;77.22
73501;BME280;61721;42.206;25.320;2023-12-07T05:10:38;99235.97;;;5.28;77.21
73501;BME280;61721;42.206;25.320;2023-12-07T05:13:06;99239.03;;;5.04;78.50
73501;BME280;61721;42.206;25.320;2023-12-07T05:15:33;99247.13;;;5.25;77.59
73501;BME280;61721;42.206;25.320;2023-12-07T05:18:02;99249.56;;;5.20;77.88
73501;BME280;61721;42.206;25.320;2023-12-07T05:20:30;99244.06;;;4.71;78.65
73501;BME280;61721;42.206;25.320;2023-12-07T05:22:57;99254.81;;;5.07;78.73
73501;BME280;61721;42.206;25.320;2023-12-07T05:25:25;99248.97;;;5.03;78.17
73501;BME280;61721;42.206;25.320;2023-12-07T05:27:52;99247.53;;;4.21;79.73
73501;BME280;61721;42.206;25.320;2023-12-07T05:30:20;99246.09;;;5.05;78.94
73501;BME280;61721;42.206;25.320;2023-12-07T05:32:47;99245.66;;;5.44;76.88
73501;BME280;61721;42.206;25.320;2023-12-07T05:35:18;99243.91;;;5.36;76.05
73501;BME280;61721;42.206;25.320;2023-12-07T05:37:46;99253.00;;;4.93;77.37
73501;BME280;61721;42.206;25.320;2023-12-07T05:40:13;99253.69;;;5.16;76.55
73501;BME280;61721;42.206;25.320;2023-12-07T05:42:41;99252.16;;;5.28;76.66
73501;BME280;61721;42.206;25.320;2023-12-07T05:45:09;99262.31;;;5.11;77.15
73501;BME280;61721;42.206;25.320;2023-12-07T05:47:37;99266.06;;;4.45;78.73
73501;BME280;61721;42.206;25.320;2023-12-07T05:50:05;99264.31;;;4.52;78.67
73501;BME280;61721;42.206;25.320;2023-12-07T05:52:34;99268.09;;;4.72;78.26
73501;BME280;61721;42.206;25.320;2023-12-07T05:55:03;99273.00;;;4.83;77.92
73501;BME280;61721;42.206;25.320;2023-12-07T05:57:31;99283.19;;;5.03;77.02
73501;BME280;61721;42.206;25.320;2023-12-07T05:59:59;99291.44;;;5.16;76.33
73501;BME280;61721;42.206;25.320;2023-12-07T06:02:26;99296.16;;;5.14;76.73
73501;BME280;61721;42.206;25.320;2023-12-07T06:04:53;99293.41;;;4.93;76.89
73501;BME280;61721;42.206;25.320;2023-12-07T06:07:21;99291.59;;;4.78;77.63
73501;BME280;61721;42.206;25.320;2023-12-07T06:09:50;99298.00;;;4.77;77.76
73501;BME280;61721;42.206;25.320;2023-12-07T06:12:17;99293.91;;;4.81;77.96
73501;BME280;61721;42.206;25.320;2023-12-07T06:14:45;99301.63;;;4.84;77.72
73501;BME280;61721;42.206;25.320;2023-12-07T06:17:12;99298.94;;;4.84;77.94
73501;BME280;61721;42.206;25.320;2023-12-07T06:19:40;99299.28;;;4.81;77.75
73501;BME280;61721;42.206;25.320;2023-12-07T06:22:08;99305.22;;;4.92;77.49
73501;BME280;61721;42.206;25.320;2023-12-07T06:24:36;99308.50;;;5.23;77.01
73501;BME280;61721;42.206;25.320;2023-12-07T06:27:05;99302.44;;;5.00;77.32
73501;BME280;61721;42.206;25.320;2023-12-07T06:29:32;99304.09;;;5.01;77.38
73501;BME280;61721;42.206;25.320;2023-12-07T06:32:00;99306.78;;;5.15;77.05
73501;BME280;61721;42.206;25.320;2023-12-07T06:34:27;99303.72;;;5.04;77.94
73501;BME280;61721;42.206;25.320;2023-12-07T06:36:55;99305.16;;;5.21;77.68
73501;BME280;61721;42.206;25.320;2023-12-07T06:39:23;99311.59;;;5.41;77.15
73501;BME280;61721;42.206;25.320;2023-12-07T06:41:51;99313.91;;;5.23;77.68
73501;BME280;61721;42.206;25.320;2023-12-07T06:44:21;99314.44;;;5.33;77.46
73501;BME280;61721;42.206;25.320;2023-12-07T06:46:48;99316.34;;;5.18;78.69
73501;BME280;61721;42.206;25.320;2023-12-07T06:49:15;99306.28;;;5.48;78.13
73501;BME280;61721;42.206;25.320;2023-12-07T06:51:43;99312.00;;;5.59;78.20
73501;BME280;61721;42.206;25.320;2023-12-07T06:54:10;99306.75;;;5.94;77.28
73501;BME280;61721;42.206;25.320;2023-12-07T06:56:38;99317.38;;;5.81;77.45
73501;BME280;61721;42.206;25.320;2023-12-07T06:59:05;99319.06;;;6.03;77.75
73501;BME280;61721;42.206;25.320;2023-12-07T07:01:34;99322.88;;;6.15;77.38
73501;BME280;61721;42.206;25.320;2023-12-07T07:04:02;99331.09;;;6.28;77.53
73501;BME280;61721;42.206;25.320;2023-12-07T07:06:29;99318.09;;;6.11;77.94
73501;BME280;61721;42.206;25.320;2023-12-07T07:08:57;99314.06;;;6.28;77.86
73501;BME280;61721;42.206;25.320;2023-12-07T07:11:25;99320.19;;;6.15;78.72
73501;BME280;61721;42.206;25.320;2023-12-07T07:13:54;99322.47;;;6.40;78.17
73501;BME280;61721;42.206;25.320;2023-12-07T07:16:21;99326.28;;;6.52;78.18
73501;BME280;61721;42.206;25.320;2023-12-07T07:18:50;99320.59;;;6.12;78.97
73501;BME280;61721;42.206;25.320;2023-12-07T07:21:18;99329.59;;;6.19;79.22
73501;BME280;61721;42.206;25.320;2023-12-07T07:23:46;99323.38;;;6.25;79.48
73501;BME280;61721;42.206;25.320;2023-12-07T07:26:14;99322.81;;;6.30;79.05
73501;BME280;61721;42.206;25.320;2023-12-07T07:28:43;99329.59;;;6.19;79.25
73501;BME280;61721;42.206;25.320;2023-12-07T07:31:10;99334.28;;;6.39;79.75
73501;BME280;61721;42.206;25.320;2023-12-07T07:33:38;99335.00;;;6.88;77.99
73501;BME280;61721;42.206;25.320;2023-12-07T07:36:07;99339.19;;;6.91;77.59
73501;BME280;61721;42.206;25.320;2023-12-07T07:38:35;99335.69;;;7.03;77.34
73501;BME280;61721;42.206;25.320;2023-12-07T07:41:03;99328.16;;;6.92;77.29
73501;BME280;61721;42.206;25.320;2023-12-07T07:43:30;99331.53;;;7.01;77.31
73501;BME280;61721;42.206;25.320;2023-12-07T07:46:00;99333.22;;;7.08;77.00
73501;BME280;61721;42.206;25.320;2023-12-07T07:48:27;99331.97;;;7.04;77.16
73501;BME280;61721;42.206;25.320;2023-12-07T07:50:55;99334.91;;;7.10;77.68
73501;BME280;61721;42.206;25.320;2023-12-07T07:53:24;99336.50;;;6.97;77.98
73501;BME280;61721;42.206;25.320;2023-12-07T07:55:51;99337.44;;;7.18;78.31
73501;BME280;61721;42.206;25.320;2023-12-07T07:58:19;99336.69;;;7.50;76.86
73501;BME280;61721;42.206;25.320;2023-12-07T08:00:47;99340.03;;;7.52;77.26
73501;BME280;61721;42.206;25.320;2023-12-07T08:03:15;99346.91;;;7.48;77.05
73501;BME280;61721;42.206;25.320;2023-12-07T08:05:42;99341.09;;;7.64;75.88
73501;BME280;61721;42.206;25.320;2023-12-07T08:08:10;99341.75;;;7.79;75.91
73501;BME280;61721;42.206;25.320;2023-12-07T08:10:40;99345.34;;;8.06;75.29
73501;BME280;61721;42.206;25.320;2023-12-07T08:13:07;99352.16;;;7.89;74.74
73501;BME280;61721;42.206;25.320;2023-12-07T08:15:35;99360.56;;;8.14;75.14
73501;BME280;61721;42.206;25.320;2023-12-07T08:18:02;99357.63;;;8.15;74.04
73501;BME280;61721;42.206;25.320;2023-12-07T08:20:30;99355.13;;;8.47;73.98
73501;BME280;61721;42.206;25.320;2023-12-07T08:22:57;99363.88;;;8.29;73.59
73501;BME280;61721;42.206;25.320;2023-12-07T08:25:25;99364.31;;;8.52;73.77
73501;BME280;61721;42.206;25.320;2023-12-07T08:27:53;99371.41;;;8.40;74.21
73501;BME280;61721;42.206;25.320;2023-12-07T08:30:21;99371.00;;;8.63;73.94
73501;BME280;61721;42.206;25.320;2023-12-07T08:32:48;99370.78;;;8.38;73.77
73501;BME280;61721;42.206;25.320;2023-12-07T08:35:16;99376.38;;;8.70;73.63
73501;BME280;61721;42.206;25.320;2023-12-07T08:37:44;99375.53;;;8.76;72.53
73501;BME280;61721;42.206;25.320;2023-12-07T08:40:11;99374.47;;;8.90;72.79
73501;BME280;61721;42.206;25.320;2023-12-07T08:42:43;99371.91;;;9.08;72.15
73501;BME280;61721;42.206;25.320;2023-12-07T08:45:12;99372.09;;;9.13;72.14
73501;BME280;61721;42.206;25.320;2023-12-07T08:47:41;99380.13;;;8.75;73.31
73501;BME280;61721;42.206;25.320;2023-12-07T08:50:09;99386.84;;;8.53;72.92
73501;BME280;61721;42.206;25.320;2023-12-07T08:52:36;99380.22;;;9.13;72.62
73501;BME280;61721;42.206;25.320;2023-12-07T08:55:04;99373.44;;;8.78;72.89
73501;BME280;61721;42.206;25.320;2023-12-07T08:57:32;99382.94;;;9.20;72.46
73501;BME280;61721;42.206;25.320;2023-12-07T08:59:59;99368.06;;;8.65;72.91
73501;BME280;61721;42.206;25.320;2023-12-07T09:02:28;99375.91;;;8.99;72.77
73501;BME280;61721;42.206;25.320;2023-12-07T09:04:55;99372.19;;;8.87;73.02
73501;BME280;61721;42.206;25.320;2023-12-07T09:07:23;99372.19;;;8.87;71.35
73501;BME280;61721;42.206;25.320;2023-12-07T09:09:50;99366.53;;;9.02;71.63
73501;BME280;61721;42.206;25.320;2023-12-07T09:12:17;99369.25;;;8.88;69.93
73501;BME280;61721;42.206;25.320;2023-12-07T09:18:00;99355.09;;;8.80;71.15
73501;BME280;61721;42.206;25.320;2023-12-07T09:20:28;99359.25;;;8.89;71.99
73501;BME280;61721;42.206;25.320;2023-12-07T09:22:56;99354.06;;;9.39;71.15
73501;BME280;61721;42.206;25.320;2023-12-07T09:25:24;99357.34;;;9.47;70.86
73501;BME280;61721;42.206;25.320;2023-12-07T09:27:53;99358.47;;;9.71;70.36
73501;BME280;61721;42.206;25.320;2023-12-07T09:30:21;99360.78;;;9.67;71.49
73501;BME280;61721;42.206;25.320;2023-12-07T09:32:48;99358.81;;;9.81;70.67
73501;BME280;61721;42.206;25.320;2023-12-07T09:35:17;99360.38;;;9.64;70.36
73501;BME280;61721;42.206;25.320;2023-12-07T09:37:45;99355.72;;;9.40;71.21
73501;BME280;61721;42.206;25.320;2023-12-07T09:40:17;99348.13;;;9.55;70.24
73501;BME280;61721;42.206;25.320;2023-12-07T09:42:46;99352.06;;;9.90;68.97
73501;BME280;61721;42.206;25.320;2023-12-07T09:45:15;99342.25;;;9.58;69.92
73501;BME280;61721;42.206;25.320;2023-12-07T09:47:47;99341.88;;;9.48;70.56
73501;BME280;61721;42.206;25.320;2023-12-07T09:50:17;99338.28;;;9.54;70.90
73501;BME280;61721;42.206;25.320;2023-12-07T09:52:48;99340.94;;;9.67;70.49
73501;BME280;61721;42.206;25.320;2023-12-07T09:55:17;99341.84;;;10.17;70.20
73501;BME280;61721;42.206;25.320;2023-12-07T09:57:45;99337.00;;;9.94;69.50
73501;BME280;61721;42.206;25.320;2023-12-07T10:00:13;99343.56;;;10.18;68.62
73501;BME280;61721;42.206;25.320;2023-12-07T10:02:42;99342.38;;;10.01;69.92
73501;BME280;61721;42.206;25.320;2023-12-07T10:05:11;99345.22;;;10.13;68.83
73501;BME280;61721;42.206;25.320;2023-12-07T10:07:42;99341.94;;;9.73;69.62
73501;BME280;61721;42.206;25.320;2023-12-07T10:10:10;99336.00;;;10.14;69.91
73501;BME280;61721;42.206;25.320;2023-12-07T10:12:45;99338.25;;;9.98;69.03
73501;BME280;61721;42.206;25.320;2023-12-07T10:15:16;99335.59;;;10.17;70.52
73501;BME280;61721;42.206;25.320;2023-12-07T10:17:46;99334.31;;;10.44;68.78
73501;BME280;61721;42.206;25.320;2023-12-07T10:20:15;99329.75;;;9.88;69.91
73501;BME280;61721;42.206;25.320;2023-12-07T10:22:45;99324.47;;;9.93;71.07
73501;BME280;61721;42.206;25.320;2023-12-07T10:25:13;99321.03;;;10.36;69.83
73501;BME280;61721;42.206;25.320;2023-12-07T10:27:42;99320.34;;;9.84;70.50
73501;BME280;61721;42.206;25.320;2023-12-07T10:30:10;99320.50;;;10.21;69.99
73501;BME280;61721;42.206;25.320;2023-12-07T10:32:39;99321.75;;;9.62;70.95
73501;BME280;61721;42.206;25.320;2023-12-07T10:35:08;99318.31;;;9.80;70.42
73501;BME280;61721;42.206;25.320;2023-12-07T10:37:36;99323.59;;;9.99;70.14
73501;BME280;61721;42.206;25.320;2023-12-07T10:40:06;99320.06;;;9.92;70.30
73501;BME280;61721;42.206;25.320;2023-12-07T10:42:37;99318.66;;;10.15;68.79
73501;BME280;61721;42.206;25.320;2023-12-07T10:45:08;99319.72;;;10.14;69.92
73501;BME280;61721;42.206;25.320;2023-12-07T10:47:38;99310.25;;;10.23;69.08
73501;BME280;61721;42.206;25.320;2023-12-07T10:50:07;99314.25;;;10.45;69.43
73501;BME280;61721;42.206;25.320;2023-12-07T10:52:44;99306.91;;;10.21;68.73
73501;BME280;61721;42.206;25.320;2023-12-07T10:55:16;99314.06;;;10.40;68.08
73501;BME280;61721;42.206;25.320;2023-12-07T10:57:47;99308.28;;;10.30;66.88
73501;BME280;61721;42.206;25.320;2023-12-07T11:00:15;99304.66;;;10.18;66.96
73501;BME280;61721;42.206;25.320;2023-12-07T11:02:43;99303.00;;;10.60;66.80
73501;BME280;61721;42.206;25.320;2023-12-07T11:05:12;99294.00;;;10.77;66.15
73501;BME280;61721;42.206;25.320;2023-12-07T11:07:48;99307.84;;;11.12;65.69
73501;BME280;61721;42.206;25.320;2023-12-07T11:10:23;99299.78;;;12.07;64.93
73501;BME280;61721;42.206;25.320;2023-12-07T11:12:56;99294.84;;;12.74;63.21
73501;BME280;61721;42.206;25.320;2023-12-07T11:15:28;99291.63;;;12.66;62.96
73501;BME280;61721;42.206;25.320;2023-12-07T11:17:56;99290.72;;;13.12;60.91
73501;BME280;61721;42.206;25.320;2023-12-07T11:20:32;99297.09;;;13.29;59.95
73501;BME280;61721;42.206;25.320;2023-12-07T11:23:07;99297.91;;;13.69;60.06
73501;BME280;61721;42.206;25.320;2023-12-07T11:25:37;99293.81;;;14.00;59.68
73501;BME280;61721;42.206;25.320;2023-12-07T11:28:06;99290.66;;;13.92;59.15
73501;BME280;61721;42.206;25.320;2023-12-07T11:30:36;99290.88;;;13.45;60.82
73501;BME280;61721;42.206;25.320;2023-12-07T11:33:04;99287.16;;;13.51;60.12
73501;BME280;61721;42.206;25.320;2023-12-07T11:35:33;99281.22;;;13.54;60.25
73501;BME280;61721;42.206;25.320;2023-12-07T11:38:05;99283.69;;;13.27;59.72
73501;BME280;61721;42.206;25.320;2023-12-07T11:40:39;99275.34;;;13.62;59.32
73501;BME280;61721;42.206;25.320;2023-12-07T11:43:07;99275.94;;;12.96;58.16
73501;BME280;61721;42.206;25.320;2023-12-07T11:45:43;99276.56;;;12.63;59.16
73501;BME280;61721;42.206;25.320;2023-12-07T11:48:15;99272.47;;;13.00;57.94
73501;BME280;61721;42.206;25.320;2023-12-07T11:51:02;99272.63;;;13.34;56.87
73501;BME280;61721;42.206;25.320;2023-12-07T11:53:32;99275.47;;;12.87;57.52
73501;BME280;61721;42.206;25.320;2023-12-07T11:56:03;99274.81;;;13.49;55.71
73501;BME280;61721;42.206;25.320;2023-12-07T11:58:32;99272.06;;;13.77;56.52
73501;BME280;61721;42.206;25.320;2023-12-07T12:01:07;99266.44;;;14.89;54.63
73501;BME280;61721;42.206;25.320;2023-12-07T12:03:35;99261.53;;;14.91;53.06
73501;BME280;61721;42.206;25.320;2023-12-07T12:06:04;99264.78;;;14.16;55.66
73501;BME280;61721;42.206;25.320;2023-12-07T12:08:34;99268.28;;;15.05;52.83
73501;BME280;61721;42.206;25.320;2023-12-07T12:11:04;99266.00;;;14.97;53.15
73501;BME280;61721;42.206;25.320;2023-12-07T12:13:34;99262.75;;;14.62;53.94
73501;BME280;61721;42.206;25.320;2023-12-07T12:16:02;99271.66;;;15.34;51.73
73501;BME280;61721;42.206;25.320;2023-12-07T12:18:37;99267.72;;;15.25;53.38
73501;BME280;61721;42.206;25.320;2023-12-07T12:21:07;99267.78;;;15.08;52.57
73501;BME280;61721;42.206;25.320;2023-12-07T12:23:35;99268.88;;;16.10;51.06
73501;BME280;61721;42.206;25.320;2023-12-07T12:26:04;99273.06;;;15.85;49.63
73501;BME280;61721;42.206;25.320;2023-12-07T12:28:32;99265.72;;;15.64;49.89
73501;BME280;61721;42.206;25.320;2023-12-07T12:31:04;99256.69;;;15.20;51.24
73501;BME280;61721;42.206;25.320;2023-12-07T12:33:31;99257.56;;;14.82;52.78
73501;BME280;61721;42.206;25.320;2023-12-07T12:36:03;99250.91;;;15.16;51.61
73501;BME280;61721;42.206;25.320;2023-12-07T12:38:32;99254.50;;;15.00;50.68
73501;BME280;61721;42.206;25.320;2023-12-07T12:41:00;99265.00;;;15.52;49.90
73501;BME280;61721;42.206;25.320;2023-12-07T12:43:31;99256.31;;;13.84;52.32
73501;BME280;61721;42.206;25.320;2023-12-07T12:46:00;99258.72;;;13.81;53.65
73501;BME280;61721;42.206;25.320;2023-12-07T12:48:28;99255.47;;;13.67;51.88
73501;BME280;61721;42.206;25.320;2023-12-07T12:50:55;99261.81;;;14.01;52.34
73501;BME280;61721;42.206;25.320;2023-12-07T12:53:23;99255.81;;;14.54;49.97
73501;BME280;61721;42.206;25.320;2023-12-07T12:55:51;99252.09;;;15.26;49.28
73501;BME280;61721;42.206;25.320;2023-12-07T12:58:19;99251.34;;;13.98;51.60
73501;BME280;61721;42.206;25.320;2023-12-07T13:00:49;99257.34;;;15.05;50.63
73501;BME280;61721;42.206;25.320;2023-12-07T13:03:17;99254.38;;;14.90;49.42
73501;BME280;61721;42.206;25.320;2023-12-07T13:05:44;99250.94;;;15.21;49.37
73501;BME280;61721;42.206;25.320;2023-12-07T13:08:13;99253.03;;;15.36;48.63